createdAt,value
2018-09-18T00:00:16.350Z,978.66
2018-09-18T00:01:16.270Z,978.69
2018-09-18T00:02:16.198Z,978.66
2018-09-18T00:03:16.114Z,978.65
2018-09-18T00:04:16.043Z,978.64
2018-09-18T00:05:15.961Z,978.66
2018-09-18T00:06:15.892Z,978.64
2018-09-18T00:07:15.806Z,978.65
2018-09-18T00:08:15.743Z,978.63
2018-09-18T00:09:15.652Z,978.59
2018-09-18T00:10:15.586Z,978.60
2018-09-18T00:11:15.499Z,978.63
2018-09-18T00:12:15.429Z,978.61
2018-09-18T00:13:15.347Z,978.62
2018-09-18T00:14:15.284Z,978.64
2018-09-18T00:15:15.199Z,978.66
2018-09-18T00:16:15.123Z,978.65
2018-09-18T00:17:15.044Z,978.65
2018-09-18T00:18:14.969Z,978.64
2018-09-18T00:19:14.886Z,978.67
2018-09-18T00:20:14.815Z,978.65
2018-09-18T00:21:14.736Z,978.65
2018-09-18T00:22:14.661Z,978.60
2018-09-18T00:23:14.578Z,978.65
2018-09-18T00:24:14.508Z,978.64
2018-09-18T00:25:14.424Z,978.64
2018-09-18T00:26:14.351Z,978.59
2018-09-18T00:27:14.270Z,978.60
2018-09-18T00:28:14.860Z,978.62
2018-09-18T00:29:14.114Z,978.58
2018-09-18T00:30:14.047Z,978.57
2018-09-18T00:31:13.961Z,978.57
2018-09-18T00:32:13.897Z,978.55
2018-09-18T00:33:13.810Z,978.54
2018-09-18T00:34:13.740Z,978.51
2018-09-18T00:35:13.654Z,978.51
2018-09-18T00:36:13.584Z,978.52
2018-09-18T00:37:13.500Z,978.55
2018-09-18T00:38:13.429Z,978.53
2018-09-18T00:39:13.346Z,978.45
2018-09-18T00:40:13.280Z,978.42
2018-09-18T00:41:13.195Z,978.45
2018-09-18T00:42:13.122Z,978.41
2018-09-18T00:43:13.038Z,978.47
2018-09-18T00:44:12.969Z,978.47
2018-09-18T00:45:12.880Z,978.43
2018-09-18T00:46:12.815Z,978.43
2018-09-18T00:47:12.730Z,978.40
2018-09-18T00:48:12.666Z,978.42
2018-09-18T00:49:12.577Z,978.43
2018-09-18T00:50:12.507Z,978.43
2018-09-18T00:51:12.422Z,978.41
2018-09-18T00:52:12.350Z,978.42
2018-09-18T00:53:12.265Z,978.42
2018-09-18T00:54:12.198Z,978.39
2018-09-18T00:55:12.112Z,978.41
2018-09-18T00:56:12.044Z,978.38
2018-09-18T00:57:11.959Z,978.36
2018-09-18T00:58:11.887Z,978.35
2018-09-18T00:59:11.801Z,978.40
2018-09-18T01:00:11.735Z,978.39
2018-09-18T01:01:11.653Z,978.37
2018-09-18T01:02:11.575Z,978.39
2018-09-18T01:03:11.498Z,978.39
2018-09-18T01:04:11.426Z,978.43
2018-09-18T01:05:11.343Z,978.38
2018-09-18T01:06:11.272Z,978.38
2018-09-18T01:07:11.189Z,978.40
2018-09-18T01:08:11.123Z,978.42
2018-09-18T01:09:11.035Z,978.41
2018-09-18T01:10:10.959Z,978.41
2018-09-18T01:11:10.876Z,978.43
2018-09-18T01:12:10.809Z,978.43
2018-09-18T01:13:10.724Z,978.38
2018-09-18T01:14:10.649Z,978.40
2018-09-18T01:15:10.568Z,978.41
2018-09-18T01:16:10.501Z,978.43
2018-09-18T01:17:10.417Z,978.39
2018-09-18T01:18:10.344Z,978.45
2018-09-18T01:19:10.259Z,978.44
2018-09-18T01:20:10.191Z,978.42
2018-09-18T01:21:10.107Z,978.41
2018-09-18T01:22:10.037Z,978.39
2018-09-18T01:23:09.950Z,978.39
2018-09-18T01:24:09.883Z,978.42
2018-09-18T01:25:09.801Z,978.39
2018-09-18T01:26:09.727Z,978.40
2018-09-18T01:27:09.643Z,978.37
2018-09-18T01:28:09.573Z,978.38
2018-09-18T01:29:09.489Z,978.38
2018-09-18T01:30:09.417Z,978.40
2018-09-18T01:31:09.333Z,978.37
2018-09-18T01:32:09.264Z,978.33
2018-09-18T01:33:09.180Z,978.34
2018-09-18T01:34:09.107Z,978.35
2018-09-18T01:35:09.023Z,978.35
2018-09-18T01:36:08.957Z,978.37
2018-09-18T01:37:08.873Z,978.36
2018-09-18T01:38:08.809Z,978.37
2018-09-18T01:39:08.715Z,978.40
2018-09-18T01:40:08.646Z,978.35
2018-09-18T01:41:08.562Z,978.35
2018-09-18T01:42:08.494Z,978.37
2018-09-18T01:43:08.404Z,978.35
2018-09-18T01:44:08.333Z,978.37
2018-09-18T01:45:08.254Z,978.34
2018-09-18T01:46:08.184Z,978.35
2018-09-18T01:47:08.104Z,978.32
2018-09-18T01:48:08.031Z,978.36
2018-09-18T01:49:07.946Z,978.42
2018-09-18T01:50:07.874Z,978.39
2018-09-18T01:51:07.788Z,978.38
2018-09-18T01:52:07.719Z,978.39
2018-09-18T01:53:07.635Z,978.37
2018-09-18T01:54:07.563Z,978.36
2018-09-18T01:55:07.482Z,978.36
2018-09-18T01:56:07.411Z,978.32
2018-09-18T01:57:07.326Z,978.34
2018-09-18T01:58:07.254Z,978.34
2018-09-18T01:59:07.171Z,978.34
2018-09-18T02:00:07.102Z,978.34
2018-09-18T02:01:07.016Z,978.30
2018-09-18T02:02:06.946Z,978.29
2018-09-18T02:03:06.862Z,978.30
2018-09-18T02:04:06.792Z,978.31
2018-09-18T02:05:06.710Z,978.37
2018-09-18T02:06:06.633Z,978.34
2018-09-18T02:07:06.561Z,978.31
2018-09-18T02:08:06.482Z,978.34
2018-09-18T02:09:06.395Z,978.37
2018-09-18T02:10:06.326Z,978.34
2018-09-18T02:11:06.242Z,978.31
2018-09-18T02:12:06.172Z,978.30
2018-09-18T02:13:06.089Z,978.32
2018-09-18T02:14:06.016Z,978.30
2018-09-18T02:15:05.934Z,978.37
2018-09-18T02:16:05.863Z,978.36
2018-09-18T02:17:05.780Z,978.36
2018-09-18T02:18:05.709Z,978.41
2018-09-18T02:19:05.620Z,978.41
2018-09-18T02:20:05.562Z,978.40
2018-09-18T02:21:05.469Z,978.41
2018-09-18T02:22:05.399Z,978.44
2018-09-18T02:23:05.313Z,978.41
2018-09-18T02:24:05.244Z,978.43
2018-09-18T02:25:05.159Z,978.44
2018-09-18T02:26:05.089Z,978.42
2018-09-18T02:27:05.011Z,978.42
2018-09-18T02:28:04.934Z,978.45
2018-09-18T02:29:04.848Z,978.43
2018-09-18T02:30:04.783Z,978.40
2018-09-18T02:31:04.694Z,978.41
2018-09-18T02:32:04.626Z,978.38
2018-09-18T02:33:04.539Z,978.36
2018-09-18T02:34:04.475Z,978.37
2018-09-18T02:35:04.382Z,978.37
2018-09-18T02:36:04.312Z,978.35
2018-09-18T02:37:04.227Z,978.37
2018-09-18T02:38:04.161Z,978.37
2018-09-18T02:39:04.074Z,978.39
2018-09-18T02:40:04.002Z,978.39
2018-09-18T02:41:03.920Z,978.44
2018-09-18T02:42:03.848Z,978.45
2018-09-18T02:43:03.765Z,978.44
2018-09-18T02:44:03.696Z,978.45
2018-09-18T02:45:03.609Z,978.44
2018-09-18T02:46:03.539Z,978.46
2018-09-18T02:47:03.451Z,978.44
2018-09-18T02:48:03.384Z,978.44
2018-09-18T02:49:03.295Z,978.44
2018-09-18T02:50:03.227Z,978.45
2018-09-18T02:51:03.141Z,978.48
2018-09-18T02:52:03.071Z,978.48
2018-09-18T02:53:02.988Z,978.45
2018-09-18T02:54:02.916Z,978.45
2018-09-18T02:55:02.835Z,978.45
2018-09-18T02:56:02.763Z,978.46
2018-09-18T02:57:02.678Z,978.41
2018-09-18T02:58:02.606Z,978.41
2018-09-18T02:59:02.531Z,978.41
2018-09-18T03:00:02.456Z,978.46
2018-09-18T03:01:02.364Z,978.43
2018-09-18T03:02:02.299Z,978.46
2018-09-18T03:03:02.214Z,978.45
2018-09-18T03:04:02.141Z,978.46
2018-09-18T03:05:02.058Z,978.47
2018-09-18T03:06:01.981Z,978.44
2018-09-18T03:07:01.902Z,978.47
2018-09-18T03:08:01.827Z,978.49
2018-09-18T03:09:01.746Z,978.47
2018-09-18T03:10:01.677Z,978.49
2018-09-18T03:11:01.591Z,978.48
2018-09-18T03:12:01.519Z,978.49
2018-09-18T03:13:01.433Z,978.52
2018-09-18T03:14:01.363Z,978.49
2018-09-18T03:15:01.282Z,978.50
2018-09-18T03:16:01.208Z,978.47
2018-09-18T03:17:01.125Z,978.44
2018-09-18T03:18:01.053Z,978.46
2018-09-18T03:19:00.966Z,978.40
2018-09-18T03:20:00.902Z,978.40
2018-09-18T03:21:00.866Z,978.40
2018-09-18T03:22:00.742Z,978.39
2018-09-18T03:23:00.666Z,978.37
2018-09-18T03:24:00.587Z,978.35
2018-09-18T03:25:00.504Z,978.35
2018-09-18T03:26:00.430Z,978.37
2018-09-18T03:27:00.347Z,978.35
2018-09-18T03:28:00.279Z,978.34
2018-09-18T03:29:00.192Z,978.37
2018-09-18T03:30:00.124Z,978.35
2018-09-18T03:31:00.037Z,978.37
2018-09-18T03:31:59.968Z,978.37
2018-09-18T03:32:59.882Z,978.40
2018-09-18T03:33:59.815Z,978.38
2018-09-18T03:34:59.725Z,978.36
2018-09-18T03:35:59.760Z,978.34
2018-09-18T03:36:59.578Z,978.34
2018-09-18T03:37:59.569Z,978.32
2018-09-18T03:38:59.417Z,978.35
2018-09-18T03:39:59.378Z,978.34
2018-09-18T03:40:59.257Z,978.31
2018-09-18T03:41:59.289Z,978.33
2018-09-18T03:42:59.104Z,978.34
2018-09-18T03:43:59.035Z,978.37
2018-09-18T03:44:58.950Z,978.38
2018-09-18T03:45:58.879Z,978.36
2018-09-18T03:46:58.792Z,978.39
2018-09-18T03:47:58.722Z,978.37
2018-09-18T03:48:58.639Z,978.35
2018-09-18T03:49:58.626Z,978.35
2018-09-18T03:50:58.485Z,978.34
2018-09-18T03:51:58.410Z,978.33
2018-09-18T03:52:58.328Z,978.32
2018-09-18T03:53:58.344Z,978.27
2018-09-18T03:54:58.172Z,978.29
2018-09-18T03:55:58.155Z,978.28
2018-09-18T03:56:58.014Z,978.27
2018-09-18T03:57:57.963Z,978.25
2018-09-18T03:58:57.862Z,978.25
2018-09-18T04:00:02.485Z,978.26
2018-09-18T04:00:57.708Z,978.27
2018-09-18T04:01:57.684Z,978.25
2018-09-18T04:02:57.629Z,978.28
2018-09-18T04:04:03.530Z,978.28
2018-09-18T04:04:57.394Z,978.27
2018-09-18T04:06:08.974Z,978.27
2018-09-18T04:06:57.234Z,978.26
2018-09-18T04:07:57.210Z,978.24
2018-09-18T04:08:57.082Z,978.26
2018-09-18T04:09:57.123Z,978.29
2018-09-18T04:10:56.926Z,978.27
2018-09-18T04:11:56.924Z,978.29
2018-09-18T04:12:56.771Z,978.28
2018-09-18T04:13:56.746Z,978.25
2018-09-18T04:14:56.618Z,978.28
2018-09-18T04:15:56.644Z,978.31
2018-09-18T04:16:56.461Z,978.32
2018-09-18T04:17:56.458Z,978.32
2018-09-18T04:18:56.304Z,978.32
2018-09-18T04:19:56.263Z,978.35
2018-09-18T04:20:56.147Z,978.35
2018-09-18T04:21:56.079Z,978.37
2018-09-18T04:22:55.995Z,978.35
2018-09-18T04:23:55.984Z,978.33
2018-09-18T04:24:55.838Z,978.35
2018-09-18T04:25:55.794Z,978.35
2018-09-18T04:26:55.680Z,978.34
2018-09-18T04:27:55.612Z,978.29
2018-09-18T04:28:55.526Z,978.28
2018-09-18T04:29:55.456Z,978.31
2018-09-18T04:30:55.376Z,978.30
2018-09-18T04:31:55.300Z,978.31
2018-09-18T04:32:55.218Z,978.32
2018-09-18T04:33:55.148Z,978.34
2018-09-18T04:34:55.057Z,978.34
2018-09-18T04:35:54.999Z,978.32
2018-09-18T04:36:54.901Z,978.34
2018-09-18T04:37:54.833Z,978.36
2018-09-18T04:38:54.748Z,978.38
2018-09-18T04:39:55.680Z,978.36
2018-09-18T04:40:54.593Z,978.39
2018-09-18T04:41:54.526Z,978.42
2018-09-18T04:42:54.436Z,978.41
2018-09-18T04:43:54.366Z,978.37
2018-09-18T04:44:54.281Z,978.39
2018-09-18T04:45:54.245Z,978.39
2018-09-18T04:46:54.125Z,978.39
2018-09-18T04:47:54.052Z,978.37
2018-09-18T04:48:53.970Z,978.37
2018-09-18T04:49:53.901Z,978.37
2018-09-18T04:50:53.811Z,978.35
2018-09-18T04:51:53.743Z,978.37
2018-09-18T04:52:53.660Z,978.37
2018-09-18T04:53:53.585Z,978.36
2018-09-18T04:54:53.553Z,978.38
2018-09-18T04:55:53.434Z,978.36
2018-09-18T04:56:53.346Z,978.38
2018-09-18T04:57:53.275Z,978.42
2018-09-18T04:58:53.191Z,978.42
2018-09-18T04:59:53.120Z,978.42
2018-09-18T05:00:53.034Z,978.39
2018-09-18T05:01:53.011Z,978.42
2018-09-18T05:02:52.880Z,978.42
2018-09-18T05:03:52.806Z,978.41
2018-09-18T05:04:52.721Z,978.38
2018-09-18T05:05:52.679Z,978.37
2018-09-18T05:06:52.563Z,978.37
2018-09-18T05:07:52.590Z,978.38
2018-09-18T05:08:52.407Z,978.41
2018-09-18T05:09:52.398Z,978.40
2018-09-18T05:10:52.253Z,978.45
2018-09-18T05:11:52.182Z,978.43
2018-09-18T05:12:52.098Z,978.44
2018-09-18T05:13:52.074Z,978.44
2018-09-18T05:14:51.942Z,978.45
2018-09-18T05:15:51.947Z,978.45
2018-09-18T05:16:51.790Z,978.48
2018-09-18T05:17:51.755Z,978.48
2018-09-18T05:18:51.630Z,978.46
2018-09-18T05:19:51.668Z,978.41
2018-09-18T05:20:51.475Z,978.44
2018-09-18T05:21:51.476Z,978.45
2018-09-18T05:22:51.315Z,978.47
2018-09-18T05:23:51.285Z,978.47
2018-09-18T05:24:51.161Z,978.48
2018-09-18T05:25:51.198Z,978.48
2018-09-18T05:26:51.006Z,978.49
2018-09-18T05:27:51.005Z,978.46
2018-09-18T05:28:50.852Z,978.49
2018-09-18T05:29:50.771Z,978.48
2018-09-18T05:30:50.719Z,978.52
2018-09-18T05:31:50.616Z,978.53
2018-09-18T05:32:50.630Z,978.52
2018-09-18T05:33:50.580Z,978.53
2018-09-18T05:34:50.443Z,978.53
2018-09-18T05:35:50.304Z,978.55
2018-09-18T05:36:50.248Z,978.51
2018-09-18T05:37:50.148Z,978.56
2018-09-18T05:38:50.174Z,978.54
2018-09-18T05:39:49.993Z,978.52
2018-09-18T05:40:49.974Z,978.54
2018-09-18T05:41:49.887Z,978.55
2018-09-18T05:42:49.879Z,978.58
2018-09-18T05:43:49.681Z,978.54
2018-09-18T05:44:49.690Z,978.58
2018-09-18T05:45:49.523Z,978.56
2018-09-18T05:46:49.498Z,978.58
2018-09-18T05:47:49.370Z,978.59
2018-09-18T05:48:49.413Z,978.60
2018-09-18T05:49:49.212Z,978.58
2018-09-18T05:50:49.216Z,978.53
2018-09-18T05:51:49.056Z,978.56
2018-09-18T05:52:48.983Z,978.55
2018-09-18T05:53:48.934Z,978.55
2018-09-18T05:54:48.826Z,978.54
2018-09-18T05:55:48.844Z,978.53
2018-09-18T05:56:48.673Z,978.53
2018-09-18T05:57:48.653Z,978.56
2018-09-18T05:58:48.523Z,978.55
2018-09-18T05:59:48.465Z,978.57
2018-09-18T06:00:48.357Z,978.59
2018-09-18T06:01:48.372Z,978.59
2018-09-18T06:02:48.207Z,978.59
2018-09-18T06:03:48.186Z,978.61
2018-09-18T06:04:48.045Z,978.64
2018-09-18T06:05:47.992Z,978.63
2018-09-18T06:06:47.891Z,978.62
2018-09-18T06:07:47.900Z,978.57
2018-09-18T06:08:47.740Z,978.61
2018-09-18T06:09:47.713Z,978.62
2018-09-18T06:10:47.576Z,978.61
2018-09-18T06:11:47.518Z,978.61
2018-09-18T06:12:47.426Z,978.60
2018-09-18T06:13:47.432Z,978.61
2018-09-18T06:14:47.276Z,978.60
2018-09-18T06:15:47.186Z,978.61
2018-09-18T06:16:47.145Z,978.61
2018-09-18T06:17:47.035Z,978.61
2018-09-18T06:18:47.139Z,978.57
2018-09-18T06:19:46.879Z,978.61
2018-09-18T06:20:46.864Z,978.61
2018-09-18T06:21:46.726Z,978.59
2018-09-18T06:22:46.674Z,978.60
2018-09-18T06:23:46.569Z,978.59
2018-09-18T06:24:46.589Z,978.60
2018-09-18T06:25:46.413Z,978.61
2018-09-18T06:26:46.395Z,978.62
2018-09-18T06:27:46.260Z,978.59
2018-09-18T06:28:46.207Z,978.60
2018-09-18T06:29:46.105Z,978.61
2018-09-18T06:30:46.029Z,978.61
2018-09-18T06:31:45.950Z,978.61
2018-09-18T06:32:45.927Z,978.62
2018-09-18T06:33:45.795Z,978.64
2018-09-18T06:34:45.722Z,978.63
2018-09-18T06:35:45.639Z,978.64
2018-09-18T06:36:45.564Z,978.66
2018-09-18T06:37:45.550Z,978.67
2018-09-18T06:38:45.411Z,978.66
2018-09-18T06:39:45.359Z,978.68
2018-09-18T06:40:45.253Z,978.69
2018-09-18T06:41:45.175Z,978.70
2018-09-18T06:42:45.098Z,978.71
2018-09-18T06:43:45.083Z,978.72
2018-09-18T06:44:44.942Z,978.73
2018-09-18T06:45:44.887Z,978.74
2018-09-18T06:46:44.789Z,978.77
2018-09-18T06:47:44.800Z,978.77
2018-09-18T06:48:44.640Z,978.80
2018-09-18T06:49:44.613Z,978.80
2018-09-18T06:50:44.480Z,978.82
2018-09-18T06:51:44.401Z,978.82
2018-09-18T06:52:44.425Z,978.80
2018-09-18T06:53:44.247Z,978.82
2018-09-18T06:54:44.234Z,978.83
2018-09-18T06:55:44.092Z,978.85
2018-09-18T06:56:44.045Z,978.85
2018-09-18T06:57:43.939Z,978.89
2018-09-18T06:58:43.955Z,978.86
2018-09-18T06:59:43.786Z,978.86
2018-09-18T07:00:43.764Z,978.87
2018-09-18T07:01:43.631Z,978.86
2018-09-18T07:02:43.674Z,978.85
2018-09-18T07:03:43.478Z,978.86
2018-09-18T07:04:43.483Z,978.83
2018-09-18T07:05:43.397Z,978.88
2018-09-18T07:06:43.295Z,978.89
2018-09-18T07:07:43.169Z,978.89
2018-09-18T07:08:43.202Z,978.85
2018-09-18T07:09:43.018Z,978.85
2018-09-18T07:10:43.015Z,978.87
2018-09-18T07:11:42.864Z,978.88
2018-09-18T07:12:42.824Z,978.86
2018-09-18T07:13:42.714Z,978.89
2018-09-18T07:14:42.742Z,978.92
2018-09-18T07:15:42.557Z,978.92
2018-09-18T07:16:42.547Z,978.90
2018-09-18T07:17:42.410Z,978.89
2018-09-18T07:18:42.356Z,978.87
2018-09-18T07:19:42.254Z,978.87
2018-09-18T07:20:42.263Z,978.90
2018-09-18T07:21:42.099Z,978.91
2018-09-18T07:22:42.076Z,978.86
2018-09-18T07:23:41.947Z,978.84
2018-09-18T07:24:41.990Z,978.82
2018-09-18T07:25:41.793Z,978.83
2018-09-18T07:26:41.796Z,978.84
2018-09-18T07:27:41.642Z,978.82
2018-09-18T07:28:41.609Z,978.84
2018-09-18T07:29:41.494Z,978.84
2018-09-18T07:30:41.515Z,978.85
2018-09-18T07:31:41.341Z,978.85
2018-09-18T07:32:41.324Z,978.82
2018-09-18T07:33:41.211Z,978.80
2018-09-18T07:34:41.235Z,978.82
2018-09-18T07:35:41.041Z,978.76
2018-09-18T07:36:41.044Z,978.78
2018-09-18T07:37:40.887Z,978.78
2018-09-18T07:38:40.854Z,978.79
2018-09-18T07:39:40.736Z,978.81
2018-09-18T07:40:40.766Z,978.80
2018-09-18T07:41:40.587Z,978.81
2018-09-18T07:42:40.573Z,978.81
2018-09-18T07:43:40.436Z,978.85
2018-09-18T07:44:40.384Z,978.83
2018-09-18T07:45:40.289Z,978.81
2018-09-18T07:46:40.294Z,978.84
2018-09-18T07:47:40.142Z,978.82
2018-09-18T07:48:40.106Z,978.84
2018-09-18T07:49:39.992Z,978.84
2018-09-18T07:50:40.068Z,978.87
2018-09-18T07:51:39.842Z,978.89
2018-09-18T07:52:39.822Z,978.88
2018-09-18T07:53:39.694Z,978.86
2018-09-18T07:54:39.621Z,978.88
2018-09-18T07:55:39.548Z,978.89
2018-09-18T07:56:39.542Z,978.88
2018-09-18T07:57:39.395Z,978.88
2018-09-18T07:58:39.325Z,978.89
2018-09-18T07:59:39.364Z,978.89
2018-09-18T08:00:39.175Z,978.90
2018-09-18T08:01:39.169Z,978.90
2018-09-18T08:02:39.030Z,978.93
2018-09-18T08:03:38.977Z,978.89
2018-09-18T08:04:38.885Z,978.87
2018-09-18T08:05:38.892Z,978.87
2018-09-18T08:06:38.744Z,978.89
2018-09-18T08:07:38.699Z,978.87
2018-09-18T08:08:38.595Z,978.84
2018-09-18T08:09:38.611Z,978.85
2018-09-18T08:10:38.447Z,978.85
2018-09-18T08:11:38.422Z,978.83
2018-09-18T08:12:38.302Z,978.83
2018-09-18T08:13:38.331Z,978.81
2018-09-18T08:14:38.164Z,978.80
2018-09-18T08:15:38.085Z,978.86
2018-09-18T08:16:38.045Z,978.80
2018-09-18T08:17:37.940Z,978.82
2018-09-18T08:18:38.004Z,978.80
2018-09-18T08:19:37.994Z,978.83
2018-09-18T08:20:37.765Z,978.81
2018-09-18T08:21:37.651Z,978.80
2018-09-18T08:22:37.679Z,978.82
2018-09-18T08:23:37.511Z,978.83
2018-09-18T08:24:37.487Z,978.82
2018-09-18T08:25:37.372Z,978.85
2018-09-18T08:26:37.398Z,978.83
2018-09-18T08:27:37.219Z,978.83
2018-09-18T08:28:37.152Z,978.86
2018-09-18T08:29:37.110Z,978.86
2018-09-18T08:30:37.011Z,978.85
2018-09-18T08:31:37.023Z,978.82
2018-09-18T08:32:36.893Z,978.82
2018-09-18T08:33:36.833Z,978.81
2018-09-18T08:34:36.726Z,978.78
2018-09-18T08:35:36.651Z,978.82
2018-09-18T08:36:36.609Z,978.75
2018-09-18T08:37:36.549Z,978.81
2018-09-18T08:38:36.442Z,978.85
2018-09-18T08:39:37.010Z,978.83
2018-09-18T08:40:36.298Z,978.81
2018-09-18T08:41:36.294Z,978.82
2018-09-18T08:42:36.158Z,978.79
2018-09-18T08:43:36.185Z,978.77
2018-09-18T08:44:36.042Z,978.83
2018-09-18T08:45:35.994Z,978.82
2018-09-18T08:46:35.875Z,978.83
2018-09-18T08:47:35.930Z,978.85
2018-09-18T08:48:35.742Z,978.81
2018-09-18T08:49:35.755Z,978.85
2018-09-18T08:50:35.616Z,978.84
2018-09-18T08:51:35.683Z,978.84
2018-09-18T08:52:35.484Z,978.83
2018-09-18T08:53:35.434Z,978.82
2018-09-18T08:54:35.315Z,978.78
2018-09-18T08:55:35.345Z,978.78
2018-09-18T08:56:35.178Z,978.80
2018-09-18T08:57:35.152Z,978.81
2018-09-18T08:58:35.037Z,978.84
2018-09-18T08:59:34.965Z,978.80
2018-09-18T09:00:34.973Z,978.83
2018-09-18T09:01:34.831Z,978.79
2018-09-18T09:02:34.895Z,978.81
2018-09-18T09:03:34.714Z,978.79
2018-09-18T09:04:34.716Z,978.81
2018-09-18T09:05:34.562Z,978.81
2018-09-18T09:06:34.687Z,978.83
2018-09-18T09:07:34.513Z,978.79
2018-09-18T09:08:34.480Z,978.81
2018-09-18T09:09:34.289Z,978.77
2018-09-18T09:10:34.271Z,978.79
2018-09-18T09:11:34.226Z,978.86
2018-09-18T09:12:34.069Z,978.85
2018-09-18T09:13:34.054Z,978.83
2018-09-18T09:14:34.002Z,978.86
2018-09-18T09:15:33.990Z,978.87
2018-09-18T09:16:33.793Z,978.83
2018-09-18T09:17:33.775Z,978.83
2018-09-18T09:18:33.745Z,978.82
2018-09-18T09:19:33.689Z,978.82
2018-09-18T09:20:33.520Z,978.81
2018-09-18T09:21:33.481Z,978.81
2018-09-18T09:22:33.505Z,978.81
2018-09-18T09:23:33.337Z,978.80
2018-09-18T09:24:33.303Z,978.79
2018-09-18T09:25:33.175Z,978.85
2018-09-18T09:26:33.258Z,978.82
2018-09-18T09:27:33.088Z,978.84
2018-09-18T09:28:32.985Z,978.79
2018-09-18T09:29:33.037Z,978.75
2018-09-18T09:30:32.837Z,978.76
2018-09-18T09:31:32.845Z,978.71
2018-09-18T09:32:32.717Z,978.69
2018-09-18T09:33:32.661Z,978.70
2018-09-18T09:34:32.667Z,978.68
2018-09-18T09:35:32.496Z,978.68
2018-09-18T09:36:32.452Z,978.73
2018-09-18T09:37:32.459Z,978.75
2018-09-18T09:38:32.294Z,978.75
2018-09-18T09:39:32.272Z,978.72
2018-09-18T09:40:32.157Z,978.74
2018-09-18T09:41:32.182Z,978.68
2018-09-18T09:42:32.021Z,978.70
2018-09-18T09:43:31.994Z,978.68
2018-09-18T09:44:31.884Z,978.70
2018-09-18T09:45:31.898Z,978.63
2018-09-18T09:46:31.749Z,978.65
2018-09-18T09:47:31.711Z,978.63
2018-09-18T09:48:31.613Z,978.62
2018-09-18T09:49:31.624Z,978.62
2018-09-18T09:50:31.482Z,978.63
2018-09-18T09:51:31.605Z,978.57
2018-09-18T09:52:31.347Z,978.60
2018-09-18T09:53:31.345Z,978.59
2018-09-18T09:54:31.208Z,978.61
2018-09-18T09:55:31.145Z,978.61
2018-09-18T09:56:31.162Z,978.57
2018-09-18T09:57:31.009Z,978.61
2018-09-18T09:58:30.969Z,978.62
2018-09-18T09:59:30.881Z,978.59
2018-09-18T10:00:30.880Z,978.60
2018-09-18T10:01:30.739Z,978.57
2018-09-18T10:02:30.793Z,978.55
2018-09-18T10:03:30.608Z,978.52
2018-09-18T10:04:30.601Z,978.50
2018-09-18T10:05:30.475Z,978.51
2018-09-18T10:06:30.511Z,978.51
2018-09-18T10:07:30.343Z,978.47
2018-09-18T10:08:30.330Z,978.52
2018-09-18T10:09:30.211Z,978.52
2018-09-18T10:10:30.254Z,978.55
2018-09-18T10:11:30.075Z,978.53
2018-09-18T10:12:30.043Z,978.48
2018-09-18T10:13:29.943Z,978.48
2018-09-18T10:14:29.878Z,978.47
2018-09-18T10:15:29.811Z,978.49
2018-09-18T10:16:29.888Z,978.50
2018-09-18T10:17:29.674Z,978.47
2018-09-18T10:18:29.676Z,978.46
2018-09-18T10:19:29.547Z,978.48
2018-09-18T10:20:29.584Z,978.44
2018-09-18T10:21:29.409Z,978.46
2018-09-18T10:22:29.398Z,978.48
2018-09-18T10:23:29.301Z,978.47
2018-09-18T10:24:29.326Z,978.47
2018-09-18T10:25:29.151Z,978.54
2018-09-18T10:26:29.128Z,978.50
2018-09-18T10:27:29.039Z,978.51
2018-09-18T10:28:29.029Z,978.49
2018-09-18T10:29:28.906Z,978.45
2018-09-18T10:30:28.952Z,978.42
2018-09-18T10:31:28.754Z,978.42
2018-09-18T10:32:28.690Z,978.40
2018-09-18T10:33:28.656Z,978.40
2018-09-18T10:34:28.569Z,978.38
2018-09-18T10:35:28.567Z,978.33
2018-09-18T10:36:28.429Z,978.35
2018-09-18T10:37:28.476Z,978.33
2018-09-18T10:38:28.312Z,978.37
2018-09-18T10:39:28.280Z,978.36
2018-09-18T10:40:28.165Z,978.33
2018-09-18T10:41:28.315Z,978.33
2018-09-18T10:42:28.039Z,978.35
2018-09-18T10:43:28.047Z,978.31
2018-09-18T10:44:27.897Z,978.29
2018-09-18T10:45:27.922Z,978.30
2018-09-18T10:46:27.765Z,978.23
2018-09-18T10:47:27.719Z,978.28
2018-09-18T10:48:27.755Z,978.27
2018-09-18T10:49:27.633Z,978.27
2018-09-18T10:50:27.544Z,978.22
2018-09-18T10:51:27.442Z,978.24
2018-09-18T10:52:27.456Z,978.20
2018-09-18T10:53:27.325Z,978.22
2018-09-18T10:54:27.242Z,978.21
2018-09-18T10:55:27.256Z,978.19
2018-09-18T10:56:27.177Z,978.15
2018-09-18T10:57:27.047Z,978.16
2018-09-18T10:58:26.982Z,978.15
2018-09-18T10:59:26.921Z,978.19
2018-09-18T11:00:27.013Z,978.16
2018-09-18T11:01:26.797Z,978.21
2018-09-18T11:02:26.908Z,978.21
2018-09-18T11:03:26.678Z,978.21
2018-09-18T11:06:02.413Z,978.16
2018-09-18T11:07:07.451Z,978.16
2018-09-18T11:08:02.257Z,978.18
2018-09-18T11:09:02.381Z,978.15
2018-09-18T11:10:02.203Z,978.18
2018-09-18T11:11:02.228Z,978.16
2018-09-18T11:12:02.050Z,978.16
2018-09-18T11:13:02.119Z,978.17
2018-09-18T11:14:01.924Z,978.14
2018-09-18T11:15:02.084Z,978.11
2018-09-18T11:16:01.902Z,978.06
2018-09-18T11:17:01.822Z,978.12
2018-09-18T11:18:01.675Z,978.11
2018-09-18T11:19:01.801Z,978.16
2018-09-18T11:20:01.680Z,978.13
2018-09-18T11:21:01.541Z,978.08
2018-09-18T11:22:01.423Z,978.07
2018-09-18T11:23:01.285Z,978.04
2018-09-18T11:24:01.228Z,978.02
2018-09-18T11:25:01.427Z,978.02
2018-09-18T11:26:01.093Z,978.04
2018-09-18T11:27:01.172Z,978.02
2018-09-18T11:28:00.981Z,977.95
2018-09-18T11:29:01.109Z,977.94
2018-09-18T11:30:00.835Z,977.96
2018-09-18T11:31:00.769Z,977.96
2018-09-18T11:32:00.911Z,977.92
2018-09-18T11:33:00.772Z,978.01
2018-09-18T11:34:00.596Z,978.00
2018-09-18T11:35:00.526Z,977.98
2018-09-18T11:36:00.621Z,978.04
2018-09-18T11:37:00.380Z,978.01
2018-09-18T11:38:00.540Z,977.97
2018-09-18T11:39:00.255Z,977.96
2018-09-18T11:40:00.339Z,977.99
2018-09-18T11:41:00.125Z,977.95
2018-09-18T11:42:00.251Z,978.00
2018-09-18T11:42:59.999Z,977.97
2018-09-18T11:44:00.062Z,977.99
2018-09-18T11:44:59.867Z,977.96
2018-09-18T11:46:00.223Z,977.98
2018-09-18T11:46:59.738Z,977.99
2018-09-18T11:47:59.885Z,977.97
2018-09-18T11:48:59.610Z,978.00
2018-09-18T11:49:59.693Z,977.95
2018-09-18T11:50:59.482Z,977.98
2018-09-18T11:51:59.608Z,977.98
2018-09-18T11:52:59.455Z,977.97
2018-09-18T11:53:59.518Z,977.93
2018-09-18T11:54:59.228Z,977.94
2018-09-18T11:55:59.327Z,977.97
2018-09-18T11:56:59.142Z,977.96
2018-09-18T11:57:59.236Z,977.94
2018-09-18T11:58:58.974Z,977.92
2018-09-18T11:59:59.041Z,977.93
2018-09-18T12:00:58.840Z,977.90
2018-09-18T12:01:58.956Z,977.89
2018-09-18T12:02:58.725Z,977.91
2018-09-18T12:03:58.765Z,977.91
2018-09-18T12:04:58.625Z,977.84
2018-09-18T12:05:58.576Z,977.84
2018-09-18T12:06:58.454Z,977.81
2018-09-18T12:07:58.485Z,977.79
2018-09-18T12:08:58.387Z,977.81
2018-09-18T12:09:58.297Z,977.82
2018-09-18T12:10:58.198Z,977.84
2018-09-18T12:11:58.202Z,977.82
2018-09-18T12:12:58.070Z,977.84
2018-09-18T12:13:58.119Z,977.85
2018-09-18T12:14:57.946Z,977.83
2018-09-18T12:15:57.929Z,977.81
2018-09-18T12:16:57.859Z,977.77
2018-09-18T12:17:57.839Z,977.73
2018-09-18T12:18:57.686Z,977.76
2018-09-18T12:19:57.750Z,977.78
2018-09-18T12:20:57.558Z,977.76
2018-09-18T12:21:57.559Z,977.74
2018-09-18T12:22:57.434Z,977.72
2018-09-18T12:23:57.470Z,977.72
2018-09-18T12:24:57.303Z,977.74
2018-09-18T12:25:57.292Z,977.71
2018-09-18T12:26:57.179Z,977.72
2018-09-18T12:27:57.190Z,977.74
2018-09-18T12:28:57.049Z,977.72